createdAt,value
2022-10-17T00:03:39.570Z,9.60
2022-10-17T00:08:42.805Z,8.52
2022-10-17T00:13:45.710Z,8.75
2022-10-17T00:18:47.285Z,9.70
2022-10-17T00:23:49.186Z,8.10
2022-10-17T00:28:52.053Z,8.93
2022-10-17T00:33:53.948Z,9.27
2022-10-17T00:38:58.530Z,9.70
2022-10-17T00:44:03.566Z,9.98
2022-10-17T00:49:08.947Z,10.93
2022-10-17T00:54:13.432Z,9.65
2022-10-17T00:59:17.447Z,9.75
2022-10-17T01:04:19.550Z,9.18
2022-10-17T01:09:21.437Z,8.65
2022-10-17T01:14:32.860Z,9.05
2022-10-17T01:19:49.951Z,8.52
2022-10-17T01:25:20.888Z,8.85
2022-10-17T01:30:26.491Z,8.93
2022-10-17T01:35:38.099Z,8.27
2022-10-17T01:40:48.425Z,8.63
2022-10-17T01:45:52.889Z,8.63
2022-10-17T01:51:02.116Z,9.15
2022-10-17T01:56:07.912Z,10.63
2022-10-17T02:01:12.390Z,10.82
2022-10-17T02:06:14.070Z,10.65
2022-10-17T02:11:22.884Z,9.82
2022-10-17T02:16:33.904Z,9.50
2022-10-17T02:21:49.785Z,11.50
2022-10-17T02:26:51.398Z,9.45
2022-10-17T02:32:17.869Z,8.95
2022-10-17T02:37:25.686Z,7.68
2022-10-17T02:42:29.466Z,8.70
2022-10-17T02:47:57.350Z,8.15
2022-10-17T02:53:05.805Z,9.13
2022-10-17T02:58:13.476Z,11.07
2022-10-17T03:03:23.722Z,8.30
2022-10-17T03:08:26.099Z,8.93
2022-10-17T03:13:28.531Z,8.23
2022-10-17T03:18:30.328Z,8.15
2022-10-17T03:23:35.242Z,8.63
2022-10-17T03:28:38.845Z,8.00
2022-10-17T03:33:40.695Z,7.80
2022-10-17T03:38:44.120Z,8.15
2022-10-17T03:43:45.843Z,7.38
2022-10-17T03:48:47.469Z,10.52
2022-10-17T03:53:49.138Z,8.50
2022-10-17T03:58:51.247Z,8.27
2022-10-17T04:03:56.106Z,12.75
2022-10-17T04:08:57.893Z,8.02
2022-10-17T04:14:03.253Z,9.55
2022-10-17T04:19:05.558Z,6.90
2022-10-17T04:24:15.412Z,6.93
2022-10-17T04:29:21.775Z,7.82
2022-10-17T04:34:25.827Z,6.65
2022-10-17T04:39:27.573Z,6.75
2022-10-17T04:44:31.082Z,7.50
2022-10-17T04:49:33.626Z,8.50
2022-10-17T04:54:42.909Z,5.93
2022-10-17T04:59:45.706Z,6.47
2022-10-17T05:04:56.273Z,7.18
2022-10-17T05:09:58.849Z,7.10
2022-10-17T05:15:00.737Z,5.75
2022-10-17T05:20:04.174Z,8.40
2022-10-17T05:25:08.448Z,6.93
2022-10-17T05:30:10.422Z,6.75
2022-10-17T05:35:13.456Z,7.63
2022-10-17T05:40:16.501Z,7.55
2022-10-17T05:45:18.634Z,8.40
2022-10-17T05:50:22.069Z,8.48
2022-10-17T05:55:35.947Z,11.15
2022-10-17T06:00:37.635Z,7.50
2022-10-17T06:05:39.885Z,11.02
2022-10-17T06:10:41.557Z,7.20
2022-10-17T06:15:43.411Z,7.28
2022-10-17T06:20:46.084Z,9.25
2022-10-17T06:25:50.378Z,8.27
2022-10-17T06:30:52.059Z,9.82
2022-10-17T06:35:55.821Z,10.23
2022-10-17T06:41:11.165Z,9.70
2022-10-17T06:46:17.497Z,11.43
2022-10-17T06:51:29.172Z,12.43
2022-10-17T06:56:33.306Z,19.52
2022-10-17T07:02:02.196Z,14.45
2022-10-17T07:07:05.162Z,15.40
2022-10-17T07:12:09.136Z,12.98
2022-10-17T07:17:11.473Z,11.23
2022-10-17T07:22:13.658Z,10.90
2022-10-17T07:27:19.011Z,10.25
2022-10-17T07:32:21.757Z,9.75
2022-10-17T07:37:23.489Z,9.43
2022-10-17T07:42:29.446Z,10.13
2022-10-17T07:47:32.068Z,9.35
2022-10-17T07:52:35.135Z,7.13
2022-10-17T07:57:36.773Z,6.85
2022-10-17T08:02:38.444Z,8.35
2022-10-17T08:07:41.424Z,6.00
2022-10-17T08:12:43.417Z,6.78
2022-10-17T08:17:44.952Z,8.40
2022-10-17T08:22:52.478Z,6.65
2022-10-17T08:27:54.132Z,6.40
2022-10-17T08:32:56.356Z,7.10
2022-10-17T08:38:01.553Z,7.18
2022-10-17T08:43:35.201Z,6.63
2022-10-17T08:48:45.611Z,6.15
2022-10-17T08:53:55.816Z,8.35
2022-10-17T08:58:58.239Z,6.55
2022-10-17T09:04:15.923Z,6.28
2022-10-17T09:09:41.160Z,6.80
2022-10-17T09:15:02.807Z,6.82
2022-10-17T09:20:19.428Z,8.40
2022-10-17T09:25:21.933Z,9.07
2022-10-17T09:30:44.550Z,8.90
2022-10-17T09:35:48.633Z,10.02
2022-10-17T09:41:00.638Z,9.38
2022-10-17T09:46:37.289Z,9.98
2022-10-17T09:51:39.373Z,10.15
2022-10-17T09:57:02.691Z,10.52
2022-10-17T10:02:09.470Z,10.75
2022-10-17T10:07:12.378Z,10.32
2022-10-17T10:12:23.797Z,11.77
2022-10-17T10:17:37.304Z,10.55
2022-10-17T10:22:38.980Z,11.77
2022-10-17T10:27:42.750Z,12.00
2022-10-17T10:32:46.904Z,11.52
2022-10-17T10:37:52.931Z,11.80
2022-10-17T10:43:02.537Z,10.80
2022-10-17T10:48:16.517Z,11.60
2022-10-17T10:53:24.883Z,11.50
2022-10-17T10:58:47.924Z,11.90
2022-10-17T11:03:58.444Z,11.80
2022-10-17T11:09:13.025Z,11.80
2022-10-17T11:14:24.781Z,11.80
2022-10-17T11:19:44.559Z,11.43
2022-10-17T11:25:00.819Z,11.77
2022-10-17T11:30:03.882Z,11.93
2022-10-17T11:35:30.639Z,12.15
2022-10-17T11:40:36.152Z,11.82
2022-10-17T11:45:45.270Z,12.48
2022-10-17T11:56:33.329Z,12.02
2022-10-17T12:02:01.754Z,11.88
2022-10-17T12:07:30.086Z,12.15
2022-10-17T12:12:34.650Z,12.40
2022-10-17T12:17:41.195Z,12.50
2022-10-17T12:23:12.098Z,12.25
2022-10-17T12:28:18.982Z,12.30
2022-10-17T12:33:23.542Z,12.60
2022-10-17T12:38:27.160Z,12.20
2022-10-17T12:43:28.807Z,12.57
2022-10-17T12:48:33.173Z,12.57
2022-10-17T12:53:49.943Z,13.02
2022-10-17T12:58:52.053Z,13.52
2022-10-17T13:03:55.070Z,13.27
2022-10-17T13:09:08.765Z,13.00
2022-10-17T13:14:16.453Z,13.48
2022-10-17T13:19:24.682Z,13.23
2022-10-17T13:24:40.534Z,12.88
2022-10-17T13:29:44.454Z,14.15
2022-10-17T13:34:46.010Z,13.80
2022-10-17T13:40:00.309Z,14.25
2022-10-17T13:45:25.375Z,14.35
2022-10-17T13:50:48.663Z,14.27
2022-10-17T13:56:09.552Z,14.77
2022-10-17T14:01:19.204Z,13.63
2022-10-17T14:06:23.634Z,13.70
2022-10-17T14:11:38.157Z,14.15
2022-10-17T14:16:42.504Z,13.88
2022-10-17T14:21:48.867Z,14.52
2022-10-17T14:26:59.498Z,13.75
2022-10-17T14:32:03.052Z,14.25
2022-10-17T14:37:41.368Z,14.35
2022-10-17T14:42:43.678Z,13.93
2022-10-17T14:47:49.899Z,14.68
2022-10-17T14:53:23.566Z,14.60
2022-10-17T14:58:27.960Z,14.13
2022-10-17T15:03:29.674Z,14.43
2022-10-17T15:08:31.346Z,13.75
2022-10-17T15:13:39.954Z,13.90
2022-10-17T15:18:43.848Z,14.20
2022-10-17T15:23:45.464Z,14.15
2022-10-17T15:28:47.805Z,13.88
2022-10-17T15:33:49.943Z,13.68
2022-10-17T15:38:53.496Z,13.40
2022-10-17T15:43:55.534Z,13.95
2022-10-17T15:49:02.443Z,14.38
2022-10-17T15:54:05.694Z,12.80
2022-10-17T15:59:14.093Z,12.25
2022-10-17T16:04:15.966Z,12.00
2022-10-17T16:09:17.550Z,9.95
2022-10-17T16:14:19.214Z,9.90
2022-10-17T16:19:21.775Z,10.50
2022-10-17T16:24:24.514Z,12.52
2022-10-17T16:29:26.168Z,14.43
2022-10-17T16:34:30.685Z,12.70
2022-10-17T16:39:32.332Z,14.25
2022-10-17T16:44:34.074Z,17.33
2022-10-17T16:49:35.653Z,16.30
2022-10-17T16:54:37.305Z,11.85
2022-10-17T16:59:38.912Z,11.18
2022-10-17T17:04:40.560Z,14.73
2022-10-17T17:09:42.125Z,13.25
2022-10-17T17:14:43.712Z,11.63
2022-10-17T17:19:45.248Z,18.85
2022-10-17T17:24:46.853Z,17.55
2022-10-17T17:29:48.509Z,19.90
2022-10-17T17:34:50.131Z,16.60
2022-10-17T17:39:51.699Z,12.20
2022-10-17T17:44:53.441Z,11.43
2022-10-17T17:49:55.021Z,12.82
2022-10-17T17:54:56.567Z,14.25
2022-10-17T17:59:58.111Z,12.52
2022-10-17T18:04:59.670Z,13.77
2022-10-17T18:10:01.230Z,13.43
2022-10-17T18:15:04.410Z,17.17
2022-10-17T18:20:07.162Z,13.60
2022-10-17T18:25:08.945Z,15.32
2022-10-17T18:30:10.755Z,18.38
2022-10-17T18:35:12.318Z,16.52
2022-10-17T18:40:13.842Z,18.52
2022-10-17T18:45:15.703Z,22.30
2022-10-17T18:50:17.376Z,19.20
2022-10-17T18:55:20.535Z,18.38
2022-10-17T19:00:22.105Z,20.15
2022-10-17T19:05:23.670Z,19.42
2022-10-17T19:10:25.729Z,23.27
2022-10-17T19:15:27.326Z,23.80
2022-10-17T19:20:29.184Z,20.92
2022-10-17T19:25:30.881Z,27.13
2022-10-17T19:30:32.521Z,28.10
2022-10-17T19:35:34.883Z,24.95
2022-10-17T19:40:40.934Z,26.35
2022-10-17T19:45:42.536Z,28.15
2022-10-17T19:50:44.692Z,28.63
2022-10-17T19:55:46.314Z,29.58
2022-10-17T20:00:49.593Z,32.00
2022-10-17T20:05:51.449Z,27.10
2022-10-17T20:10:52.999Z,25.80
2022-10-17T20:15:55.948Z,25.73
2022-10-17T20:21:03.033Z,26.73
2022-10-17T20:26:33.254Z,21.77
2022-10-17T20:31:40.373Z,22.88
2022-10-17T20:36:42.072Z,25.42
2022-10-17T20:41:44.969Z,26.02
2022-10-17T20:47:00.820Z,22.67
2022-10-17T20:52:03.544Z,25.20
2022-10-17T20:57:05.794Z,25.13
2022-10-17T21:02:10.616Z,27.15
2022-10-17T21:07:12.171Z,28.08
2022-10-17T21:12:21.622Z,27.00
2022-10-17T21:17:32.886Z,23.58
2022-10-17T21:22:35.014Z,26.38
2022-10-17T21:27:36.578Z,24.48
2022-10-17T21:32:51.131Z,27.05
2022-10-17T21:37:55.832Z,26.60
2022-10-17T21:42:57.368Z,30.40
2022-10-17T21:48:12.535Z,25.25
2022-10-17T21:53:14.576Z,23.50
2022-10-17T21:58:16.220Z,19.88
2022-10-17T22:03:17.780Z,19.55
2022-10-17T22:08:19.332Z,24.00
2022-10-17T22:13:20.921Z,19.63
2022-10-17T22:18:22.488Z,17.67
2022-10-17T22:23:24.980Z,17.20
2022-10-17T22:28:26.624Z,19.95
2022-10-17T22:33:28.533Z,18.70
2022-10-17T22:38:30.372Z,16.35
2022-10-17T22:43:32.648Z,16.40
2022-10-17T22:48:34.479Z,15.20
2022-10-17T22:53:37.668Z,17.23
2022-10-17T22:58:39.746Z,14.30
2022-10-17T23:03:41.571Z,15.80
2022-10-17T23:08:43.663Z,14.05
2022-10-17T23:13:45.460Z,17.48
2022-10-17T23:18:47.225Z,18.02
2022-10-17T23:23:48.958Z,15.80
2022-10-17T23:28:54.599Z,19.25
2022-10-17T23:33:56.416Z,20.08
2022-10-17T23:38:58.700Z,19.13
2022-10-17T23:44:00.582Z,22.77
2022-10-17T23:49:02.363Z,17.05
2022-10-17T23:54:04.827Z,15.07
2022-10-17T23:59:06.564Z,16.13
